sensor_id;sensor_type;location;lat;lon;timestamp;pressure;altitude;pressure_sealevel;temperature;humidity
59825;BME280;45703;50.898;6.054;2023-04-08T00:00:53;100785.56;;;8.21;97.17
59825;BME280;45703;50.898;6.054;2023-04-08T00:03:19;100785.19;;;8.24;96.87
59825;BME280;45703;50.898;6.054;2023-04-08T00:05:44;100786.59;;;8.20;96.50
59825;BME280;45703;50.898;6.054;2023-04-08T00:08:10;100785.69;;;8.13;96.76
59825;BME280;45703;50.898;6.054;2023-04-08T00:10:35;100790.63;;;8.16;97.62
59825;BME280;45703;50.898;6.054;2023-04-08T00:13:01;100792.13;;;8.18;97.10
59825;BME280;45703;50.898;6.054;2023-04-08T00:15:26;100790.63;;;8.16;97.69
59825;BME280;45703;50.898;6.054;2023-04-08T00:17:52;100793.13;;;8.17;97.24
59825;BME280;45703;50.898;6.054;2023-04-08T00:20:19;100792.13;;;8.18;97.00
59825;BME280;45703;50.898;6.054;2023-04-08T00:22:45;100798.50;;;8.24;97.16
59825;BME280;45703;50.898;6.054;2023-04-08T00:25:11;100786.59;;;8.20;97.10
59825;BME280;45703;50.898;6.054;2023-04-08T00:27:36;100795.19;;;8.22;97.01
59825;BME280;45703;50.898;6.054;2023-04-08T00:30:01;100797.22;;;8.20;97.96
59825;BME280;45703;50.898;6.054;2023-04-08T00:32:27;100795.09;;;8.15;97.52
59825;BME280;45703;50.898;6.054;2023-04-08T00:34:53;100794.28;;;8.15;97.40
59825;BME280;45703;50.898;6.054;2023-04-08T00:37:19;100797.13;;;8.13;98.08
59825;BME280;45703;50.898;6.054;2023-04-08T00:39:45;100787.66;;;8.04;98.77
59825;BME280;45703;50.898;6.054;2023-04-08T00:42:11;100797.47;;;8.04;99.77
59825;BME280;45703;50.898;6.054;2023-04-08T00:44:36;100799.31;;;8.03;99.64
59825;BME280;45703;50.898;6.054;2023-04-08T00:47:03;100794.75;;;7.97;100.00
59825;BME280;45703;50.898;6.054;2023-04-08T00:49:30;100810.16;;;8.02;100.00
59825;BME280;45703;50.898;6.054;2023-04-08T00:51:55;100799.88;;;7.99;100.00
59825;BME280;45703;50.898;6.054;2023-04-08T00:54:21;100802.56;;;7.99;99.94
59825;BME280;45703;50.898;6.054;2023-04-08T00:56:47;100793.09;;;7.96;99.74
59825;BME280;45703;50.898;6.054;2023-04-08T00:59:13;100798.25;;;7.98;100.00
59825;BME280;45703;50.898;6.054;2023-04-08T01:04:28;100799.88;;;7.99;100.00
59825;BME280;45703;50.898;6.054;2023-04-08T01:07:02;100800.44;;;7.94;100.00
59825;BME280;45703;50.898;6.054;2023-04-08T01:09:32;100801.00;;;7.90;100.00
59825;BME280;45703;50.898;6.054;2023-04-08T01:12:03;100798.56;;;7.88;100.00
59825;BME280;45703;50.898;6.054;2023-04-08T01:14:31;100803.03;;;7.88;100.00
59825;BME280;45703;50.898;6.054;2023-04-08T01:16:59;100804.69;;;7.89;100.00
59825;BME280;45703;50.898;6.054;2023-04-08T01:19:35;100804.97;;;7.94;100.00
59825;BME280;45703;50.898;6.054;2023-04-08T01:24:38;100798.19;;;7.91;100.00
59825;BME280;45703;50.898;6.054;2023-04-08T01:27:06;100801.66;;;7.92;100.00
59825;BME280;45703;50.898;6.054;2023-04-08T01:29:33;100797.34;;;7.91;100.00
59825;BME280;45703;50.898;6.054;2023-04-08T01:31:59;100793.25;;;7.88;100.00
59825;BME280;45703;50.898;6.054;2023-04-08T01:34:27;100796.34;;;7.92;100.00
59825;BME280;45703;50.898;6.054;2023-04-08T01:36:54;100795.69;;;7.90;100.00
59825;BME280;45703;50.898;6.054;2023-04-08T01:39:21;100790.38;;;7.90;100.00
59825;BME280;45703;50.898;6.054;2023-04-08T01:41:47;100802.31;;;7.94;99.15
59825;BME280;45703;50.898;6.054;2023-04-08T01:44:14;100798.44;;;7.96;100.00
59825;BME280;45703;50.898;6.054;2023-04-08T01:46:41;100793.25;;;7.88;100.00
59825;BME280;45703;50.898;6.054;2023-04-08T01:49:07;100798.34;;;7.90;100.00
59825;BME280;45703;50.898;6.054;2023-04-08T01:51:33;100802.66;;;7.91;100.00
59825;BME280;45703;50.898;6.054;2023-04-08T01:54:00;100803.88;;;7.88;100.00
59825;BME280;45703;50.898;6.054;2023-04-08T01:56:28;100809.66;;;7.92;100.00
59825;BME280;45703;50.898;6.054;2023-04-08T01:58:54;100807.16;;;7.90;100.00
59825;BME280;45703;50.898;6.054;2023-04-08T02:01:24;100801.38;;;7.87;100.00
59825;BME280;45703;50.898;6.054;2023-04-08T02:03:52;100811.84;;;7.88;100.00
59825;BME280;45703;50.898;6.054;2023-04-08T02:06:21;100810.19;;;7.87;100.00
59825;BME280;45703;50.898;6.054;2023-04-08T02:08:47;100801.59;;;7.85;100.00
59825;BME280;45703;50.898;6.054;2023-04-08T02:11:15;100810.00;;;7.89;100.00
59825;BME280;45703;50.898;6.054;2023-04-08T02:13:40;100808.09;;;7.83;100.00
59825;BME280;45703;50.898;6.054;2023-04-08T02:18:42;100807.09;;;7.84;100.00
59825;BME280;45703;50.898;6.054;2023-04-08T02:21:13;100816.72;;;7.85;100.00
59825;BME280;45703;50.898;6.054;2023-04-08T02:23:40;100813.25;;;7.84;100.00
59825;BME280;45703;50.898;6.054;2023-04-08T02:26:11;100817.53;;;7.85;100.00
59825;BME280;45703;50.898;6.054;2023-04-08T02:28:38;100813.63;;;7.81;100.00
59825;BME280;45703;50.898;6.054;2023-04-08T02:31:09;100814.44;;;7.82;100.00
59825;BME280;45703;50.898;6.054;2023-04-08T02:33:38;100813.81;;;7.80;100.00
59825;BME280;45703;50.898;6.054;2023-04-08T02:36:04;100824.69;;;7.85;100.00
59825;BME280;45703;50.898;6.054;2023-04-08T02:38:30;100811.59;;;7.83;100.00
59825;BME280;45703;50.898;6.054;2023-04-08T02:40:56;100812.34;;;7.77;100.00
59825;BME280;45703;50.898;6.054;2023-04-08T02:43:22;100817.69;;;7.77;100.00
59825;BME280;45703;50.898;6.054;2023-04-08T02:45:54;100814.19;;;7.77;100.00
59825;BME280;45703;50.898;6.054;2023-04-08T02:48:19;100813.81;;;7.80;100.00
59825;BME280;45703;50.898;6.054;2023-04-08T02:50:44;100830.38;;;7.82;100.00
59825;BME280;45703;50.898;6.054;2023-04-08T02:53:10;100821.78;;;7.80;100.00
59825;BME280;45703;50.898;6.054;2023-04-08T02:55:36;100826.06;;;7.81;100.00
59825;BME280;45703;50.898;6.054;2023-04-08T02:58:02;100830.63;;;7.87;100.00
59825;BME280;45703;50.898;6.054;2023-04-08T03:00:27;100821.84;;;7.86;100.00
59825;BME280;45703;50.898;6.054;2023-04-08T03:02:52;100832.03;;;7.83;100.00
59825;BME280;45703;50.898;6.054;2023-04-08T03:05:18;100832.47;;;7.86;100.00
59825;BME280;45703;50.898;6.054;2023-04-08T03:07:43;100825.31;;;7.87;100.00
59825;BME280;45703;50.898;6.054;2023-04-08T03:10:09;100823.66;;;7.86;100.00
59825;BME280;45703;50.898;6.054;2023-04-08T03:12:35;100821.00;;;7.86;100.00
59825;BME280;45703;50.898;6.054;2023-04-08T03:15:00;100817.34;;;7.87;100.00
59825;BME280;45703;50.898;6.054;2023-04-08T03:17:27;100826.97;;;7.88;100.00
59825;BME280;45703;50.898;6.054;2023-04-08T03:19:53;100832.03;;;7.83;100.00
59825;BME280;45703;50.898;6.054;2023-04-08T03:22:18;100837.16;;;7.84;100.00
59825;BME280;45703;50.898;6.054;2023-04-08T03:24:43;100838.97;;;7.84;100.00
59825;BME280;45703;50.898;6.054;2023-04-08T03:27:09;100828.72;;;7.81;100.00
59825;BME280;45703;50.898;6.054;2023-04-08T03:29:34;100827.09;;;7.80;100.00
59825;BME280;45703;50.898;6.054;2023-04-08T03:32:00;100828.34;;;7.84;100.00
59825;BME280;45703;50.898;6.054;2023-04-08T03:34:25;100834.75;;;7.89;100.00
59825;BME280;45703;50.898;6.054;2023-04-08T03:36:50;100834.56;;;7.91;100.00
59825;BME280;45703;50.898;6.054;2023-04-08T03:39:16;100830.06;;;7.91;100.00
59825;BME280;45703;50.898;6.054;2023-04-08T03:41:41;100828.44;;;7.90;100.00
59825;BME280;45703;50.898;6.054;2023-04-08T03:44:07;100829.44;;;7.89;100.00
59825;BME280;45703;50.898;6.054;2023-04-08T03:46:32;100828.44;;;7.90;100.00
59825;BME280;45703;50.898;6.054;2023-04-08T03:48:57;100824.69;;;7.85;100.00
59825;BME280;45703;50.898;6.054;2023-04-08T03:51:23;100827.53;;;7.83;100.00
59825;BME280;45703;50.898;6.054;2023-04-08T03:53:48;100830.91;;;7.92;100.00
59825;BME280;45703;50.898;6.054;2023-04-08T03:56:14;100827.25;;;7.93;100.00
59825;BME280;45703;50.898;6.054;2023-04-08T03:58:40;100831.09;;;7.90;99.78
59825;BME280;45703;50.898;6.054;2023-04-08T04:01:05;100817.34;;;7.87;100.00
59825;BME280;45703;50.898;6.054;2023-04-08T04:03:30;100826.72;;;7.83;100.00
59825;BME280;45703;50.898;6.054;2023-04-08T04:05:56;100831.66;;;7.86;100.00
59825;BME280;45703;50.898;6.054;2023-04-08T04:08:21;100833.88;;;7.82;100.00
59825;BME280;45703;50.898;6.054;2023-04-08T04:10:47;100834.44;;;7.78;100.00
59825;BME280;45703;50.898;6.054;2023-04-08T04:13:12;100843.41;;;7.77;100.00
59825;BME280;45703;50.898;6.054;2023-04-08T04:15:38;100822.53;;;7.74;100.00
59825;BME280;45703;50.898;6.054;2023-04-08T04:18:04;100836.06;;;7.79;100.00
59825;BME280;45703;50.898;6.054;2023-04-08T04:20:30;100838.09;;;7.77;100.00
59825;BME280;45703;50.898;6.054;2023-04-08T04:22:55;100840.38;;;7.80;100.00
59825;BME280;45703;50.898;6.054;2023-04-08T04:25:21;100835.66;;;7.75;100.00
59825;BME280;45703;50.898;6.054;2023-04-08T04:27:46;100845.06;;;7.78;100.00
59825;BME280;45703;50.898;6.054;2023-04-08T04:30:12;100841.38;;;7.79;100.00
59825;BME280;45703;50.898;6.054;2023-04-08T04:32:40;100845.06;;;7.78;100.00
59825;BME280;45703;50.898;6.054;2023-04-08T04:35:08;100842.03;;;7.81;100.00
59825;BME280;45703;50.898;6.054;2023-04-08T04:37:33;100843.03;;;7.80;100.00
59825;BME280;45703;50.898;6.054;2023-04-08T04:39:58;100859.81;;;7.80;100.00
59825;BME280;45703;50.898;6.054;2023-04-08T04:42:24;100856.97;;;7.82;100.00
59825;BME280;45703;50.898;6.054;2023-04-08T04:44:50;100858.97;;;7.80;100.00
59825;BME280;45703;50.898;6.054;2023-04-08T04:47:15;100864.75;;;7.83;100.00
59825;BME280;45703;50.898;6.054;2023-04-08T04:49:41;100854.94;;;7.84;100.00
59825;BME280;45703;50.898;6.054;2023-04-08T04:52:07;100857.97;;;7.81;100.00
59825;BME280;45703;50.898;6.054;2023-04-08T04:54:32;100860.00;;;7.79;100.00
59825;BME280;45703;50.898;6.054;2023-04-08T04:56:57;100856.06;;;7.75;100.00
59825;BME280;45703;50.898;6.054;2023-04-08T04:59:23;100865.56;;;7.84;100.00
59825;BME280;45703;50.898;6.054;2023-04-08T05:01:48;100865.56;;;7.84;100.00
59825;BME280;45703;50.898;6.054;2023-04-08T05:04:14;100861.91;;;7.85;100.00
59825;BME280;45703;50.898;6.054;2023-04-08T05:06:39;100860.63;;;7.81;100.00
59825;BME280;45703;50.898;6.054;2023-04-08T05:09:05;100872.53;;;7.85;100.00
59825;BME280;45703;50.898;6.054;2023-04-08T05:11:30;100874.81;;;7.88;100.00
59825;BME280;45703;50.898;6.054;2023-04-08T05:13:58;100868.84;;;7.86;100.00
59825;BME280;45703;50.898;6.054;2023-04-08T05:16:23;100870.06;;;7.83;100.00
59825;BME280;45703;50.898;6.054;2023-04-08T05:18:49;100876.19;;;7.84;100.00
59825;BME280;45703;50.898;6.054;2023-04-08T05:21:15;100886.06;;;7.90;100.00
59825;BME280;45703;50.898;6.054;2023-04-08T05:23:40;100890.13;;;7.86;100.00
59825;BME280;45703;50.898;6.054;2023-04-08T05:26:06;100894.25;;;7.88;100.00
59825;BME280;45703;50.898;6.054;2023-04-08T05:28:33;100882.72;;;7.81;100.00
59825;BME280;45703;50.898;6.054;2023-04-08T05:30:58;100897.72;;;7.89;100.00
59825;BME280;45703;50.898;6.054;2023-04-08T05:33:24;100886.28;;;7.88;100.00
59825;BME280;45703;50.898;6.054;2023-04-08T05:35:50;100890.59;;;7.89;100.00
59825;BME280;45703;50.898;6.054;2023-04-08T05:38:17;100895.06;;;7.89;100.00
59825;BME280;45703;50.898;6.054;2023-04-08T05:40:42;100890.59;;;7.89;100.00
59825;BME280;45703;50.898;6.054;2023-04-08T05:43:08;100888.09;;;7.88;100.00
59825;BME280;45703;50.898;6.054;2023-04-08T05:45:33;100903.97;;;7.96;100.00
59825;BME280;45703;50.898;6.054;2023-04-08T05:47:59;100897.00;;;7.95;100.00
59825;BME280;45703;50.898;6.054;2023-04-08T05:50:24;100910.72;;;7.98;100.00
59825;BME280;45703;50.898;6.054;2023-04-08T05:52:50;100911.19;;;8.02;100.00
59825;BME280;45703;50.898;6.054;2023-04-08T05:55:15;100904.84;;;8.03;100.00
59825;BME280;45703;50.898;6.054;2023-04-08T05:57:40;100914.22;;;7.99;100.00
59825;BME280;45703;50.898;6.054;2023-04-08T06:00:08;100915.50;;;8.03;100.00
59825;BME280;45703;50.898;6.054;2023-04-08T06:02:34;100915.50;;;8.03;100.00
59825;BME280;45703;50.898;6.054;2023-04-08T06:05:00;100916.13;;;8.05;100.00
59825;BME280;45703;50.898;6.054;2023-04-08T06:07:26;100913.63;;;8.03;100.00
59825;BME280;45703;50.898;6.054;2023-04-08T06:09:51;100915.09;;;8.06;100.00
59825;BME280;45703;50.898;6.054;2023-04-08T06:12:17;100914.72;;;8.09;100.00
59825;BME280;45703;50.898;6.054;2023-04-08T06:14:42;100913.47;;;8.05;100.00
59825;BME280;45703;50.898;6.054;2023-04-08T06:17:07;100925.63;;;8.14;100.00
59825;BME280;45703;50.898;6.054;2023-04-08T06:19:33;100922.31;;;8.12;100.00
59825;BME280;45703;50.898;6.054;2023-04-08T06:21:59;100926.81;;;8.11;100.00
59825;BME280;45703;50.898;6.054;2023-04-08T06:24:25;100935.03;;;8.16;100.00
59825;BME280;45703;50.898;6.054;2023-04-08T06:26:51;100936.75;;;8.17;100.00
59825;BME280;45703;50.898;6.054;2023-04-08T06:29:18;100940.38;;;8.16;100.00
59825;BME280;45703;50.898;6.054;2023-04-08T06:31:43;100945.78;;;8.23;100.00
59825;BME280;45703;50.898;6.054;2023-04-08T06:34:08;100938.41;;;8.18;100.00
59825;BME280;45703;50.898;6.054;2023-04-08T06:36:34;100948.03;;;8.19;100.00
59825;BME280;45703;50.898;6.054;2023-04-08T06:38:59;100950.47;;;8.21;100.00
59825;BME280;45703;50.898;6.054;2023-04-08T06:41:25;100946.00;;;8.21;100.00
59825;BME280;45703;50.898;6.054;2023-04-08T06:43:50;100943.50;;;8.20;100.00
59825;BME280;45703;50.898;6.054;2023-04-08T06:46:15;100946.16;;;8.20;100.00
59825;BME280;45703;50.898;6.054;2023-04-08T06:48:41;100948.72;;;8.28;100.00
59825;BME280;45703;50.898;6.054;2023-04-08T06:51:06;100953.25;;;8.34;100.00
59825;BME280;45703;50.898;6.054;2023-04-08T06:53:32;100952.88;;;8.37;100.00
59825;BME280;45703;50.898;6.054;2023-04-08T06:55:58;100947.41;;;8.38;100.00
59825;BME280;45703;50.898;6.054;2023-04-08T06:58:23;100958.75;;;8.47;100.00
59825;BME280;45703;50.898;6.054;2023-04-08T07:00:49;100950.94;;;8.45;100.00
59825;BME280;45703;50.898;6.054;2023-04-08T07:03:14;100958.75;;;8.47;100.00
59825;BME280;45703;50.898;6.054;2023-04-08T07:05:39;100970.28;;;8.54;100.00
59825;BME280;45703;50.898;6.054;2023-04-08T07:08:06;100964.34;;;8.58;100.00
59825;BME280;45703;50.898;6.054;2023-04-08T07:10:32;100961.69;;;8.58;100.00
59825;BME280;45703;50.898;6.054;2023-04-08T07:12:58;100967.09;;;8.64;100.00
59825;BME280;45703;50.898;6.054;2023-04-08T07:15:23;100969.75;;;8.64;100.00
59825;BME280;45703;50.898;6.054;2023-04-08T07:17:49;100980.25;;;8.72;100.00
59825;BME280;45703;50.898;6.054;2023-04-08T07:20:15;100977.81;;;8.71;100.00
59825;BME280;45703;50.898;6.054;2023-04-08T07:22:41;100983.13;;;8.71;100.00
59825;BME280;45703;50.898;6.054;2023-04-08T07:25:06;100987.06;;;8.75;100.00
59825;BME280;45703;50.898;6.054;2023-04-08T07:27:33;100990.16;;;8.78;100.00
59825;BME280;45703;50.898;6.054;2023-04-08T07:29:58;100986.22;;;8.74;100.00
59825;BME280;45703;50.898;6.054;2023-04-08T07:32:24;100988.31;;;8.79;100.00
59825;BME280;45703;50.898;6.054;2023-04-08T07:34:49;100999.59;;;8.81;100.00
59825;BME280;45703;50.898;6.054;2023-04-08T07:37:15;100991.78;;;8.79;100.00
59825;BME280;45703;50.898;6.054;2023-04-08T07:39:41;101001.44;;;8.80;100.00
59825;BME280;45703;50.898;6.054;2023-04-08T07:42:07;101004.47;;;8.77;100.00
59825;BME280;45703;50.898;6.054;2023-04-08T07:44:32;101001.63;;;8.79;100.00
59825;BME280;45703;50.898;6.054;2023-04-08T07:46:58;101000.41;;;8.81;100.00
59825;BME280;45703;50.898;6.054;2023-04-08T07:49:23;101007.84;;;8.86;100.00
59825;BME280;45703;50.898;6.054;2023-04-08T07:51:48;101005.19;;;8.86;100.00
59825;BME280;45703;50.898;6.054;2023-04-08T07:54:14;101012.22;;;8.93;100.00
59825;BME280;45703;50.898;6.054;2023-04-08T07:56:42;101011.19;;;8.94;100.00
59825;BME280;45703;50.898;6.054;2023-04-08T07:59:09;101013.72;;;9.02;100.00
59825;BME280;45703;50.898;6.054;2023-04-08T08:01:34;101017.66;;;9.06;100.00
59825;BME280;45703;50.898;6.054;2023-04-08T08:04:00;101007.63;;;9.08;99.31
59825;BME280;45703;50.898;6.054;2023-04-08T08:06:26;101017.50;;;9.14;99.06
59825;BME280;45703;50.898;6.054;2023-04-08T08:08:56;101015.47;;;9.16;99.85
59825;BME280;45703;50.898;6.054;2023-04-08T08:11:22;101012.97;;;9.15;99.24
59825;BME280;45703;50.898;6.054;2023-04-08T08:13:47;101012.19;;;9.14;99.62
59825;BME280;45703;50.898;6.054;2023-04-08T08:16:12;101017.91;;;9.11;99.25
59825;BME280;45703;50.898;6.054;2023-04-08T08:18:39;101025.28;;;9.16;98.92
59825;BME280;45703;50.898;6.054;2023-04-08T08:21:04;101019.78;;;9.17;98.97
59825;BME280;45703;50.898;6.054;2023-04-08T08:23:30;101019.78;;;9.17;98.99
59825;BME280;45703;50.898;6.054;2023-04-08T08:26:03;101018.75;;;9.18;98.94
59825;BME280;45703;50.898;6.054;2023-04-08T08:28:29;101026.19;;;9.23;98.83
59825;BME280;45703;50.898;6.054;2023-04-08T08:30:54;101026.19;;;9.23;100.00
59825;BME280;45703;50.898;6.054;2023-04-08T08:33:20;101023.31;;;9.24;99.08
59825;BME280;45703;50.898;6.054;2023-04-08T08:35:45;101026.44;;;9.28;98.56
59825;BME280;45703;50.898;6.054;2023-04-08T08:38:11;101029.34;;;9.33;98.24
59825;BME280;45703;50.898;6.054;2023-04-08T08:40:38;101041.88;;;9.39;98.32
59825;BME280;45703;50.898;6.054;2023-04-08T08:43:03;101040.03;;;9.39;98.16
59825;BME280;45703;50.898;6.054;2023-04-08T08:45:29;101039.41;;;9.37;97.75
59825;BME280;45703;50.898;6.054;2023-04-08T08:47:55;101050.69;;;9.39;98.19
59825;BME280;45703;50.898;6.054;2023-04-08T08:50:21;101048.63;;;9.35;98.35
59825;BME280;45703;50.898;6.054;2023-04-08T08:52:51;101054.38;;;9.38;97.94
59825;BME280;45703;50.898;6.054;2023-04-08T08:55:20;101055.63;;;9.42;98.04
59825;BME280;45703;50.898;6.054;2023-04-08T08:57:49;101057.94;;;9.45;98.08
59825;BME280;45703;50.898;6.054;2023-04-08T09:00:15;101065.25;;;9.43;98.51
59825;BME280;45703;50.898;6.054;2023-04-08T09:02:41;101063.63;;;9.42;98.78
59825;BME280;45703;50.898;6.054;2023-04-08T09:05:07;101061.63;;;9.44;98.04
59825;BME280;45703;50.898;6.054;2023-04-08T09:07:37;101072.13;;;9.52;97.57
59825;BME280;45703;50.898;6.054;2023-04-08T09:10:05;101072.75;;;9.54;97.31
59825;BME280;45703;50.898;6.054;2023-04-08T09:12:30;101064.13;;;9.52;97.43
59825;BME280;45703;50.898;6.054;2023-04-08T09:15:06;101063.75;;;9.55;97.07
59825;BME280;45703;50.898;6.054;2023-04-08T09:17:36;101072.78;;;9.61;97.35
59825;BME280;45703;50.898;6.054;2023-04-08T09:20:12;101079.81;;;9.68;97.54
59825;BME280;45703;50.898;6.054;2023-04-08T09:22:59;101074.94;;;9.78;97.04
59825;BME280;45703;50.898;6.054;2023-04-08T09:25:29;101080.53;;;9.83;96.80
59825;BME280;45703;50.898;6.054;2023-04-08T09:27:56;101079.09;;;9.87;96.24
59825;BME280;45703;50.898;6.054;2023-04-08T09:30:23;101085.69;;;9.91;96.05
59825;BME280;45703;50.898;6.054;2023-04-08T09:32:54;101081.66;;;9.95;95.76
59825;BME280;45703;50.898;6.054;2023-04-08T09:35:20;101091.16;;;10.04;95.83
59825;BME280;45703;50.898;6.054;2023-04-08T09:37:46;101084.63;;;10.13;95.29
59825;BME280;45703;50.898;6.054;2023-04-08T09:40:12;101081.41;;;10.24;95.81
59825;BME280;45703;50.898;6.054;2023-04-08T09:42:45;101077.34;;;10.41;94.73
59825;BME280;45703;50.898;6.054;2023-04-08T09:45:14;101078.44;;;10.59;94.98
59825;BME280;45703;50.898;6.054;2023-04-08T09:47:57;101071.72;;;10.70;92.62
59825;BME280;45703;50.898;6.054;2023-04-08T09:50:32;101068.66;;;10.86;92.98
59825;BME280;45703;50.898;6.054;2023-04-08T09:53:25;101087.41;;;10.99;93.10
59825;BME280;45703;50.898;6.054;2023-04-08T09:55:55;101077.53;;;11.06;93.32
59825;BME280;45703;50.898;6.054;2023-04-08T09:58:27;101080.84;;;11.21;93.49
59825;BME280;45703;50.898;6.054;2023-04-08T10:00:54;101074.88;;;11.25;91.74
59825;BME280;45703;50.898;6.054;2023-04-08T10:05:51;101080.00;;;11.27;86.94
59825;BME280;45703;50.898;6.054;2023-04-08T10:08:17;101081.25;;;11.18;86.06
59825;BME280;45703;50.898;6.054;2023-04-08T10:10:43;101081.03;;;11.13;87.39
59825;BME280;45703;50.898;6.054;2023-04-08T10:13:09;101072.59;;;11.09;86.14
59825;BME280;45703;50.898;6.054;2023-04-08T10:15:35;101071.19;;;11.20;88.37
59825;BME280;45703;50.898;6.054;2023-04-08T10:26:30;101067.09;;;11.62;87.03
59825;BME280;45703;50.898;6.054;2023-04-08T10:31:52;101073.03;;;11.77;86.03
59825;BME280;45703;50.898;6.054;2023-04-08T10:34:50;101071.34;;;11.89;87.74
59825;BME280;45703;50.898;6.054;2023-04-08T10:37:16;101067.41;;;12.05;87.50
59825;BME280;45703;50.898;6.054;2023-04-08T10:39:48;101060.78;;;12.14;86.72
59825;BME280;45703;50.898;6.054;2023-04-08T10:42:13;101059.72;;;12.28;85.13
59825;BME280;45703;50.898;6.054;2023-04-08T10:44:46;101048.94;;;12.41;85.28
59825;BME280;45703;50.898;6.054;2023-04-08T10:47:11;101054.03;;;12.55;85.86
59825;BME280;45703;50.898;6.054;2023-04-08T10:49:37;101052.50;;;12.66;83.79
59825;BME280;45703;50.898;6.054;2023-04-08T10:52:05;101043.41;;;12.73;85.76
59825;BME280;45703;50.898;6.054;2023-04-08T10:54:31;101053.88;;;12.75;82.34
59825;BME280;45703;50.898;6.054;2023-04-08T10:56:57;101047.91;;;12.73;79.41
59825;BME280;45703;50.898;6.054;2023-04-08T10:59:31;101046.25;;;12.78;81.49
59825;BME280;45703;50.898;6.054;2023-04-08T11:01:57;101046.88;;;12.74;75.51
59825;BME280;45703;50.898;6.054;2023-04-08T11:04:23;101045.38;;;12.84;80.93
59825;BME280;45703;50.898;6.054;2023-04-08T11:06:49;101036.31;;;12.92;79.26
59825;BME280;45703;50.898;6.054;2023-04-08T11:09:15;101041.13;;;13.07;79.59
59825;BME280;45703;50.898;6.054;2023-04-08T11:11:42;101040.66;;;13.17;76.23
59825;BME280;45703;50.898;6.054;2023-04-08T11:14:44;101039.50;;;13.31;79.34
59825;BME280;45703;50.898;6.054;2023-04-08T11:17:03;101034.88;;;13.38;77.80
59825;BME280;45703;50.898;6.054;2023-04-08T11:19:30;101038.94;;;13.47;77.72
59825;BME280;45703;50.898;6.054;2023-04-08T11:21:55;101034.75;;;13.51;78.24
59825;BME280;45703;50.898;6.054;2023-04-08T11:24:21;101041.06;;;13.63;78.93
59825;BME280;45703;50.898;6.054;2023-04-08T11:26:46;101035.63;;;13.69;74.37
59825;BME280;45703;50.898;6.054;2023-04-08T11:29:12;101042.56;;;13.77;77.60
59825;BME280;45703;50.898;6.054;2023-04-08T11:31:42;101025.81;;;13.81;77.01
59825;BME280;45703;50.898;6.054;2023-04-08T11:34:08;101037.34;;;13.82;76.12
59825;BME280;45703;50.898;6.054;2023-04-08T11:36:33;101026.91;;;13.74;76.58
59825;BME280;45703;50.898;6.054;2023-04-08T11:39:05;101028.25;;;13.65;73.29
59825;BME280;45703;50.898;6.054;2023-04-08T11:41:38;101031.38;;;13.62;75.55
59825;BME280;45703;50.898;6.054;2023-04-08T11:44:04;101036.91;;;13.67;79.29
59825;BME280;45703;50.898;6.054;2023-04-08T11:46:31;101036.91;;;13.67;76.65
59825;BME280;45703;50.898;6.054;2023-04-08T11:49:05;101043.50;;;13.64;76.19
59825;BME280;45703;50.898;6.054;2023-04-08T11:51:31;101031.03;;;13.52;73.37
59825;BME280;45703;50.898;6.054;2023-04-08T11:53:58;101042.81;;;13.51;76.65
59825;BME280;45703;50.898;6.054;2023-04-08T11:56:24;101048.63;;;13.48;71.59
59825;BME280;45703;50.898;6.054;2023-04-08T11:58:50;101043.78;;;13.38;70.59
59825;BME280;45703;50.898;6.054;2023-04-08T12:01:16;101037.41;;;13.33;72.50
59825;BME280;45703;50.898;6.054;2023-04-08T12:03:58;101037.84;;;13.30;73.47
59825;BME280;45703;50.898;6.054;2023-04-08T12:06:24;101036.22;;;13.29;73.40
59825;BME280;45703;50.898;6.054;2023-04-08T12:08:51;101035.16;;;13.30;72.87
59825;BME280;45703;50.898;6.054;2023-04-08T12:11:17;101035.94;;;13.37;76.33
59825;BME280;45703;50.898;6.054;2023-04-08T12:13:42;101028.41;;;13.27;72.69
59825;BME280;45703;50.898;6.054;2023-04-08T12:16:08;101025.72;;;13.27;75.34
59825;BME280;45703;50.898;6.054;2023-04-08T12:18:33;101040.81;;;13.22;73.74
59825;BME280;45703;50.898;6.054;2023-04-08T12:20:59;101032.88;;;13.09;73.78
59825;BME280;45703;50.898;6.054;2023-04-08T12:23:24;101034.09;;;13.13;74.87
59825;BME280;45703;50.898;6.054;2023-04-08T12:25:50;101031.25;;;13.08;74.05
59825;BME280;45703;50.898;6.054;2023-04-08T12:28:16;101037.38;;;13.15;76.17
59825;BME280;45703;50.898;6.054;2023-04-08T12:30:42;101037.53;;;13.20;74.42
59825;BME280;45703;50.898;6.054;2023-04-08T12:33:07;101035.22;;;13.23;76.00
59825;BME280;45703;50.898;6.054;2023-04-08T12:35:33;101043.63;;;13.33;76.00
59825;BME280;45703;50.898;6.054;2023-04-08T12:38:05;101030.56;;;13.37;76.35
59825;BME280;45703;50.898;6.054;2023-04-08T12:40:31;101032.09;;;13.51;76.07
59825;BME280;45703;50.898;6.054;2023-04-08T12:42:56;101031.81;;;13.59;76.36
59825;BME280;45703;50.898;6.054;2023-04-08T12:45:21;101040.97;;;13.69;73.49
59825;BME280;45703;50.898;6.054;2023-04-08T12:47:54;101045.25;;;13.77;72.99
59825;BME280;45703;50.898;6.054;2023-04-08T12:50:25;101034.31;;;13.78;75.23
59825;BME280;45703;50.898;6.054;2023-04-08T12:52:55;101035.13;;;13.79;71.38
59825;BME280;45703;50.898;6.054;2023-04-08T12:55:21;101034.13;;;13.73;67.88
59825;BME280;45703;50.898;6.054;2023-04-08T12:57:52;101032.63;;;13.77;73.04
59825;BME280;45703;50.898;6.054;2023-04-08T13:00:18;101032.28;;;13.74;72.52
59825;BME280;45703;50.898;6.054;2023-04-08T13:02:44;101030.19;;;13.76;73.29
59825;BME280;45703;50.898;6.054;2023-04-08T13:05:10;101025.72;;;13.70;72.81
59825;BME280;45703;50.898;6.054;2023-04-08T13:07:35;101030.78;;;13.78;73.29
59825;BME280;45703;50.898;6.054;2023-04-08T13:10:01;101030.63;;;13.73;69.08
59825;BME280;45703;50.898;6.054;2023-04-08T13:12:28;101021.84;;;13.66;72.25